createdAt,value
2022-08-07T00:00:26.145Z,63.81
2022-08-07T00:02:56.869Z,64.70
2022-08-07T00:05:24.868Z,64.75
2022-08-07T00:07:59.848Z,65.98
2022-08-07T00:10:30.430Z,66.41
2022-08-07T00:13:09.836Z,66.61
2022-08-07T00:15:51.386Z,66.09
2022-08-07T00:18:24.624Z,66.42
2022-08-07T00:21:01.429Z,66.37
2022-08-07T00:23:31.734Z,63.31
2022-08-07T00:26:12.923Z,63.69
2022-08-07T00:28:56.534Z,63.83
2022-08-07T00:31:37.785Z,63.77
2022-08-07T00:34:08.890Z,63.71
2022-08-07T00:36:38.558Z,62.08
2022-08-07T00:39:12.640Z,61.44
2022-08-07T00:41:53.923Z,61.82
2022-08-07T00:44:29.904Z,60.30
2022-08-07T00:46:57.119Z,59.76
2022-08-07T00:50:19.337Z,59.86
2022-08-07T00:52:14.069Z,60.34
2022-08-07T00:54:45.015Z,59.28
2022-08-07T00:57:13.255Z,61.06
2022-08-07T00:59:41.956Z,61.46
2022-08-07T01:02:28.127Z,60.18
2022-08-07T01:04:58.732Z,60.63
2022-08-07T01:07:29.659Z,61.32
2022-08-07T01:10:04.658Z,61.89
2022-08-07T01:12:37.775Z,61.07
2022-08-07T01:15:11.777Z,61.60
2022-08-07T01:17:44.793Z,61.62
2022-08-07T01:20:16.533Z,61.41
2022-08-07T01:22:46.978Z,61.59
2022-08-07T01:25:53.913Z,61.14
2022-08-07T01:28:14.100Z,60.93
2022-08-07T01:30:42.443Z,61.16
2022-08-07T01:33:11.175Z,58.94
2022-08-07T01:35:54.184Z,59.04
2022-08-07T01:38:25.044Z,58.23
2022-08-07T01:40:59.409Z,59.35
2022-08-07T01:43:34.633Z,57.40
2022-08-07T01:46:08.405Z,56.80
2022-08-07T01:48:46.696Z,56.37
2022-08-07T01:52:01.088Z,55.73
2022-08-07T01:54:32.911Z,55.96
2022-08-07T01:57:24.150Z,56.00
2022-08-07T02:00:01.017Z,55.78
2022-08-07T02:03:18.702Z,56.50
2022-08-07T02:06:01.086Z,56.27
2022-08-07T02:08:37.905Z,56.22
2022-08-07T02:11:08.956Z,56.28
2022-08-07T02:13:57.697Z,56.36
2022-08-07T02:16:33.391Z,56.51
2022-08-07T02:19:05.591Z,56.53
2022-08-07T02:21:57.039Z,56.90
2022-08-07T02:24:29.562Z,56.35
2022-08-07T02:27:01.375Z,58.06
2022-08-07T02:29:32.598Z,57.74
2022-08-07T02:32:04.528Z,58.34
2022-08-07T02:34:34.580Z,58.49
2022-08-07T02:37:08.724Z,58.91
2022-08-07T02:39:43.518Z,58.22
2022-08-07T02:42:31.047Z,58.62
2022-08-07T02:45:07.603Z,58.36
2022-08-07T02:47:50.730Z,58.36
2022-08-07T02:50:20.048Z,58.94
2022-08-07T02:53:10.976Z,58.47
2022-08-07T02:56:03.371Z,58.71
2022-08-07T02:58:35.657Z,59.73
2022-08-07T03:01:05.973Z,59.85
2022-08-07T03:03:50.464Z,61.29
2022-08-07T03:06:33.255Z,60.86
2022-08-07T03:09:05.065Z,61.80
2022-08-07T03:11:38.598Z,61.82
2022-08-07T03:14:07.948Z,60.71
2022-08-07T03:16:38.492Z,61.45
2022-08-07T03:19:07.871Z,61.40
2022-08-07T03:21:37.226Z,61.03
2022-08-07T03:24:20.657Z,61.43
2022-08-07T03:26:58.144Z,61.38
2022-08-07T03:29:51.368Z,61.70
2022-08-07T03:32:28.319Z,61.33
2022-08-07T03:35:17.043Z,60.88
2022-08-07T03:37:54.020Z,61.86
2022-08-07T03:40:36.101Z,61.05
2022-08-07T03:43:14.392Z,60.42
2022-08-07T03:45:48.475Z,60.40
2022-08-07T03:48:20.944Z,60.95
2022-08-07T03:50:56.214Z,60.50
2022-08-07T03:53:50.083Z,60.67
2022-08-07T03:56:32.789Z,60.94
2022-08-07T03:59:08.301Z,61.32
2022-08-07T04:01:43.164Z,61.18
2022-08-07T04:04:17.739Z,61.80
2022-08-07T04:06:50.825Z,61.81
2022-08-07T04:09:23.241Z,61.64
2022-08-07T04:12:21.399Z,61.41
2022-08-07T04:14:46.334Z,62.38
2022-08-07T04:17:21.066Z,61.99
2022-08-07T04:19:54.497Z,62.28
2022-08-07T04:22:29.207Z,61.88
2022-08-07T04:25:01.967Z,62.04
2022-08-07T04:27:35.882Z,62.44
2022-08-07T04:30:21.670Z,62.94
2022-08-07T04:33:07.772Z,63.76
2022-08-07T04:35:39.147Z,62.49
2022-08-07T04:38:13.326Z,62.53
2022-08-07T04:40:52.273Z,63.22
2022-08-07T04:44:11.964Z,63.59
2022-08-07T04:46:34.319Z,64.16
2022-08-07T04:49:17.524Z,63.80
2022-08-07T04:52:08.832Z,63.34
2022-08-07T04:55:15.182Z,64.34
2022-08-07T04:58:16.448Z,64.29
2022-08-07T05:01:18.366Z,63.48
2022-08-07T05:04:06.786Z,63.51
2022-08-07T05:06:43.581Z,64.22
2022-08-07T05:09:45.360Z,64.77
2022-08-07T05:12:26.535Z,64.84
2022-08-07T05:15:23.382Z,63.96
2022-08-07T05:18:01.763Z,64.66
2022-08-07T05:20:45.100Z,62.55
2022-08-07T05:23:19.468Z,62.65
2022-08-07T05:26:13.581Z,62.83
2022-08-07T05:28:48.653Z,62.90
2022-08-07T05:31:20.664Z,62.50
2022-08-07T05:34:04.881Z,62.52
2022-08-07T05:36:39.113Z,63.10
2022-08-07T05:40:06.772Z,62.33
2022-08-07T05:42:08.805Z,61.89
2022-08-07T05:44:46.650Z,61.26
2022-08-07T05:48:01.969Z,63.16
2022-08-07T05:50:19.808Z,62.98
2022-08-07T05:52:48.221Z,62.09
2022-08-07T05:55:16.027Z,62.38
2022-08-07T05:57:47.565Z,62.01
2022-08-07T06:00:17.999Z,62.47
2022-08-07T06:03:01.819Z,63.26
2022-08-07T06:05:31.801Z,62.74
2022-08-07T06:08:29.036Z,62.04
2022-08-07T06:10:54.898Z,63.34
2022-08-07T06:14:10.673Z,62.17
2022-08-07T06:16:13.534Z,62.34
2022-08-07T06:18:43.388Z,63.05
2022-08-07T06:22:15.646Z,63.14
2022-08-07T06:24:46.035Z,63.42
2022-08-07T06:26:55.354Z,63.34
2022-08-07T06:29:29.757Z,63.46
2022-08-07T06:31:57.469Z,63.25
2022-08-07T06:34:29.812Z,63.64
2022-08-07T06:36:59.404Z,64.37
2022-08-07T06:40:16.014Z,64.36
2022-08-07T06:42:34.980Z,64.00
2022-08-07T06:45:18.526Z,64.04
2022-08-07T06:47:58.601Z,64.63
2022-08-07T06:50:43.311Z,64.08
2022-08-07T06:55:27.819Z,63.91
2022-08-07T06:56:14.841Z,63.44
2022-08-07T07:00:13.436Z,63.16
2022-08-07T07:01:44.161Z,62.92
2022-08-07T07:04:28.270Z,62.05
2022-08-07T07:07:02.387Z,63.91
2022-08-07T07:09:45.195Z,65.42
2022-08-07T07:12:38.303Z,68.15
2022-08-07T07:15:35.718Z,70.81
2022-08-07T07:18:47.487Z,69.24
2022-08-07T07:21:22.148Z,69.10
2022-08-07T07:24:09.335Z,69.13
2022-08-07T07:26:41.228Z,68.16
2022-08-07T07:29:56.342Z,67.96
2022-08-07T07:32:14.401Z,68.23
2022-08-07T07:34:52.605Z,69.87
2022-08-07T07:37:45.480Z,69.68
2022-08-07T07:40:16.520Z,70.26
2022-08-07T07:42:50.858Z,67.81
2022-08-07T07:46:33.374Z,67.94
2022-08-07T07:48:12.890Z,67.62
2022-08-07T07:51:02.601Z,65.98
2022-08-07T07:53:51.574Z,66.01
2022-08-07T07:56:30.245Z,64.67
2022-08-07T07:59:01.678Z,65.37
2022-08-07T08:02:04.851Z,65.60
2022-08-07T08:04:25.490Z,65.62
2022-08-07T08:06:53.885Z,65.96
2022-08-07T08:09:25.325Z,64.67
2022-08-07T08:12:01.854Z,64.37
2022-08-07T08:14:36.478Z,63.95
2022-08-07T08:17:55.333Z,63.88
2022-08-07T08:20:19.385Z,63.56
2022-08-07T08:23:12.869Z,63.53
2022-08-07T08:26:06.930Z,64.12
2022-08-07T08:28:43.295Z,64.09
2022-08-07T08:31:22.640Z,64.52
2022-08-07T08:33:55.777Z,63.99
2022-08-07T08:36:29.738Z,64.12
2022-08-07T08:39:01.659Z,64.81
2022-08-07T08:42:10.187Z,64.52
2022-08-07T08:44:46.467Z,64.20
2022-08-07T08:47:26.467Z,63.79
2022-08-07T08:50:08.788Z,64.18
2022-08-07T08:52:54.233Z,65.95
2022-08-07T08:55:53.189Z,66.08
2022-08-07T08:58:39.967Z,67.45
2022-08-07T09:01:29.684Z,67.60
2022-08-07T09:04:41.360Z,67.14
2022-08-07T09:07:15.907Z,65.58
2022-08-07T09:09:59.116Z,66.05
2022-08-07T09:13:15.034Z,62.79
2022-08-07T09:16:22.505Z,63.17
2022-08-07T09:19:03.440Z,63.73
2022-08-07T09:22:22.850Z,64.09
2022-08-07T09:24:59.749Z,63.42
2022-08-07T09:28:00.730Z,63.97
2022-08-07T09:30:54.266Z,64.18
2022-08-07T09:33:56.566Z,65.45
2022-08-07T09:36:37.003Z,65.12
2022-08-07T09:39:55.093Z,63.63
2022-08-07T09:42:29.241Z,63.51
2022-08-07T09:47:42.409Z,64.50
2022-08-07T09:48:11.718Z,64.29
2022-08-07T09:50:54.316Z,64.65
2022-08-07T09:53:24.622Z,64.97
2022-08-07T09:56:15.121Z,66.02
2022-08-07T09:59:22.039Z,66.26
2022-08-07T10:02:37.758Z,65.94
2022-08-07T10:05:21.297Z,65.90
2022-08-07T10:08:53.316Z,64.53
2022-08-07T10:12:00.403Z,64.57
2022-08-07T10:14:38.844Z,65.38
2022-08-07T10:17:18.203Z,65.62
2022-08-07T10:20:00.712Z,65.28
2022-08-07T10:22:46.748Z,65.58
2022-08-07T10:25:42.224Z,65.95
2022-08-07T10:28:15.176Z,65.12
2022-08-07T10:30:57.183Z,64.45
2022-08-07T10:34:32.212Z,63.84
2022-08-07T10:38:00.716Z,64.00
2022-08-07T10:40:33.392Z,63.94
2022-08-07T10:43:34.521Z,63.10
2022-08-07T10:46:09.477Z,62.36
2022-08-07T10:48:55.342Z,62.19
2022-08-07T10:51:57.570Z,60.65
2022-08-07T10:54:55.176Z,60.89
2022-08-07T10:57:56.197Z,59.09
2022-08-07T11:00:39.423Z,59.91
2022-08-07T11:03:17.018Z,59.38
2022-08-07T11:06:02.881Z,59.35
2022-08-07T11:08:31.985Z,59.70
2022-08-07T11:11:03.091Z,58.78
2022-08-07T11:14:44.286Z,58.67
2022-08-07T11:17:02.146Z,58.78
2022-08-07T11:19:46.357Z,58.14
2022-08-07T11:22:37.191Z,58.41
2022-08-07T11:25:49.975Z,58.13
2022-08-07T11:28:41.928Z,58.37
2022-08-07T11:31:22.655Z,57.71
2022-08-07T11:34:28.826Z,58.11
2022-08-07T11:37:57.231Z,57.39
2022-08-07T11:40:49.727Z,56.95
2022-08-07T11:43:41.353Z,56.53
2022-08-07T11:46:32.415Z,56.52
2022-08-07T11:50:25.222Z,56.50
2022-08-07T11:52:45.920Z,57.66
2022-08-07T11:56:09.553Z,56.86
2022-08-07T11:58:43.422Z,57.64
2022-08-07T12:01:59.998Z,59.18
2022-08-07T12:04:48.748Z,61.82
2022-08-07T12:07:53.780Z,63.87
2022-08-07T12:10:41.889Z,64.97
2022-08-07T12:13:40.995Z,64.77
2022-08-07T12:16:18.753Z,66.35
2022-08-07T12:19:14.776Z,63.88
2022-08-07T12:21:55.693Z,62.70
2022-08-07T12:26:03.354Z,62.71
2022-08-07T12:28:40.120Z,62.21
2022-08-07T12:31:27.108Z,61.63
2022-08-07T12:34:16.244Z,60.61
2022-08-07T12:36:50.037Z,60.37
2022-08-07T12:39:44.087Z,60.68
2022-08-07T12:42:10.293Z,62.09
2022-08-07T12:44:47.797Z,60.78
2022-08-07T12:47:31.832Z,60.13
2022-08-07T12:50:39.172Z,61.02
2022-08-07T12:53:17.969Z,60.33
2022-08-07T12:56:03.952Z,60.73
2022-08-07T12:58:39.685Z,59.01
2022-08-07T13:01:34.777Z,58.64
2022-08-07T13:05:01.984Z,58.63
2022-08-07T13:08:14.623Z,57.99
2022-08-07T13:11:07.328Z,57.62
2022-08-07T13:14:02.063Z,59.53
2022-08-07T13:16:39.440Z,57.57
2022-08-07T13:19:21.952Z,57.25
2022-08-07T13:22:27.527Z,56.30
2022-08-07T13:25:02.456Z,55.52
2022-08-07T13:28:10.861Z,54.09
2022-08-07T13:30:41.023Z,55.86
2022-08-07T13:34:31.913Z,55.92
2022-08-07T13:36:25.880Z,55.33
2022-08-07T13:39:48.946Z,55.05
2022-08-07T13:42:14.556Z,55.54
2022-08-07T13:44:55.472Z,55.67
2022-08-07T13:47:40.992Z,55.05
2022-08-07T13:50:34.579Z,54.92
2022-08-07T13:53:21.735Z,55.02
2022-08-07T13:55:54.676Z,55.14
2022-08-07T13:58:56.476Z,55.44
2022-08-07T14:01:26.524Z,54.78
2022-08-07T14:04:07.236Z,55.21
2022-08-07T14:06:39.028Z,55.43
2022-08-07T14:09:09.947Z,56.24
2022-08-07T14:12:01.071Z,56.85
2022-08-07T14:15:00.503Z,55.92
2022-08-07T14:17:51.548Z,55.70
2022-08-07T14:20:40.411Z,54.82
2022-08-07T14:23:14.939Z,55.62
2022-08-07T14:26:05.404Z,56.71
2022-08-07T14:31:26.057Z,56.51
2022-08-07T14:34:12.272Z,55.77
2022-08-07T14:36:56.053Z,55.67
2022-08-07T14:40:18.233Z,55.37
2022-08-07T14:42:20.617Z,56.84
2022-08-07T14:44:59.850Z,56.90
2022-08-07T14:47:32.610Z,57.08
2022-08-07T14:50:06.780Z,55.85
2022-08-07T14:52:39.437Z,56.13
2022-08-07T14:55:10.052Z,54.86
2022-08-07T14:57:57.953Z,54.56
2022-08-07T15:00:31.068Z,54.33
2022-08-07T15:03:17.482Z,54.30
2022-08-07T15:05:54.696Z,54.25
2022-08-07T15:08:47.562Z,54.46
2022-08-07T15:11:53.919Z,53.31
2022-08-07T15:14:16.415Z,54.38
2022-08-07T15:16:54.853Z,53.31
2022-08-07T15:20:31.534Z,52.00
2022-08-07T15:22:29.080Z,52.33
2022-08-07T15:25:18.319Z,52.51
2022-08-07T15:31:04.660Z,51.06
2022-08-07T15:33:33.721Z,49.32
2022-08-07T15:36:05.762Z,47.78
2022-08-07T15:42:44.755Z,45.58
2022-08-07T15:44:17.267Z,46.03
2022-08-07T15:46:52.614Z,45.77
2022-08-07T15:50:05.215Z,44.97
2022-08-07T15:52:29.995Z,45.00
2022-08-07T15:55:09.063Z,44.63
2022-08-07T15:57:48.794Z,44.41
2022-08-07T16:00:31.920Z,45.62
2022-08-07T16:03:46.765Z,44.82
2022-08-07T16:06:11.834Z,45.52
2022-08-07T16:08:46.691Z,45.97
2022-08-07T16:11:32.409Z,45.45
2022-08-07T16:14:19.126Z,45.39
2022-08-07T16:16:56.797Z,45.78
2022-08-07T16:19:59.342Z,46.96
2022-08-07T16:22:58.217Z,45.90
2022-08-07T16:26:01.815Z,46.15
2022-08-07T16:30:07.090Z,46.69
2022-08-07T16:32:02.143Z,46.23
2022-08-07T16:34:59.467Z,43.67
2022-08-07T16:38:05.267Z,42.69
2022-08-07T16:40:56.943Z,42.51
2022-08-07T16:44:05.686Z,42.59
2022-08-07T16:47:16.376Z,42.63
2022-08-07T16:50:27.246Z,43.01
2022-08-07T16:53:20.775Z,43.05
2022-08-07T16:55:58.916Z,43.84
2022-08-07T16:59:14.234Z,44.93
2022-08-07T17:02:03.697Z,45.00
2022-08-07T17:04:59.315Z,46.03
2022-08-07T17:07:55.885Z,46.77
2022-08-07T17:10:32.379Z,47.32
2022-08-07T17:13:16.756Z,47.23
2022-08-07T17:16:02.437Z,47.86
2022-08-07T17:18:36.701Z,47.92
2022-08-07T17:21:18.805Z,46.90
2022-08-07T17:24:01.998Z,47.30
2022-08-07T17:26:51.370Z,46.72
2022-08-07T17:30:15.858Z,46.97
2022-08-07T17:32:21.138Z,46.99
2022-08-07T17:35:51.645Z,47.45
2022-08-07T17:38:33.801Z,47.35
2022-08-07T17:42:02.821Z,47.48
2022-08-07T17:44:14.729Z,47.41
2022-08-07T17:46:55.577Z,47.73
2022-08-07T17:49:53.532Z,48.12
2022-08-07T17:52:46.424Z,48.74
2022-08-07T17:56:00.349Z,48.77
2022-08-07T17:58:30.169Z,49.05
2022-08-07T18:01:02.805Z,48.99
2022-08-07T18:04:07.350Z,49.30
2022-08-07T18:06:43.130Z,49.15
2022-08-07T18:09:19.195Z,49.87
2022-08-07T18:12:48.069Z,50.27
2022-08-07T18:15:42.735Z,50.87
2022-08-07T18:21:00.778Z,50.81
2022-08-07T18:21:42.238Z,51.59
2022-08-07T18:24:06.956Z,51.53
2022-08-07T18:26:40.510Z,51.58
2022-08-07T18:30:04.193Z,51.59
2022-08-07T18:32:20.163Z,51.91
2022-08-07T18:35:11.680Z,52.21
2022-08-07T18:38:55.691Z,52.80
2022-08-07T18:41:09.420Z,53.54
2022-08-07T18:43:57.263Z,53.38
2022-08-07T18:46:51.127Z,53.56
2022-08-07T18:50:31.741Z,53.90
2022-08-07T18:53:12.859Z,54.28
2022-08-07T18:55:57.220Z,54.70
2022-08-07T18:58:51.388Z,55.67
2022-08-07T19:02:18.632Z,56.84
2022-08-07T19:04:59.457Z,57.74
2022-08-07T19:07:51.825Z,58.10
2022-08-07T19:10:31.411Z,58.17
2022-08-07T19:13:50.276Z,58.01
2022-08-07T19:17:06.661Z,56.98
2022-08-07T19:19:54.995Z,56.70
2022-08-07T19:22:53.198Z,56.63
2022-08-07T19:26:25.178Z,57.16
2022-08-07T19:30:57.473Z,57.52
2022-08-07T19:31:38.170Z,57.58
2022-08-07T19:34:06.655Z,57.86
2022-08-07T19:36:40.987Z,57.92
2022-08-07T19:39:11.685Z,57.84
2022-08-07T19:42:06.183Z,58.26
2022-08-07T19:44:40.977Z,58.86
2022-08-07T19:47:11.832Z,59.60
2022-08-07T19:49:57.257Z,60.89
2022-08-07T19:52:27.949Z,60.33
2022-08-07T19:54:57.318Z,60.68
2022-08-07T19:58:00.786Z,60.65
2022-08-07T20:00:27.923Z,60.94
2022-08-07T20:03:02.216Z,61.84
2022-08-07T20:06:01.370Z,62.43
2022-08-07T20:08:31.810Z,62.42
2022-08-07T20:11:03.944Z,62.65
2022-08-07T20:13:47.700Z,62.80
2022-08-07T20:16:34.911Z,62.54
2022-08-07T20:19:05.980Z,63.00
2022-08-07T20:21:42.103Z,63.54
2022-08-07T20:24:22.728Z,63.87
2022-08-07T20:26:54.652Z,63.56
2022-08-07T20:29:49.323Z,63.92
2022-08-07T20:32:22.950Z,64.35
2022-08-07T20:34:56.355Z,64.63
2022-08-07T20:37:29.689Z,64.80
2022-08-07T20:40:05.305Z,64.81
2022-08-07T20:42:56.135Z,64.96
2022-08-07T20:45:33.224Z,65.65
2022-08-07T20:48:29.022Z,65.95
2022-08-07T20:51:01.236Z,66.23
2022-08-07T20:54:04.580Z,66.08
2022-08-07T20:56:30.564Z,65.77
2022-08-07T20:59:05.343Z,65.79
2022-08-07T21:01:45.576Z,66.34
2022-08-07T21:04:28.647Z,66.84
2022-08-07T21:07:04.531Z,67.35
2022-08-07T21:09:52.711Z,66.99
2022-08-07T21:12:30.988Z,66.84
2022-08-07T21:15:00.867Z,67.17
2022-08-07T21:18:02.603Z,67.12
2022-08-07T21:20:29.550Z,67.63
2022-08-07T21:23:07.693Z,67.81
2022-08-07T21:25:56.498Z,67.68
2022-08-07T21:29:15.757Z,68.06
2022-08-07T21:32:43.892Z,68.57
2022-08-07T21:35:01.390Z,68.66
2022-08-07T21:37:58.383Z,68.45
2022-08-07T21:40:35.633Z,68.87
2022-08-07T21:43:14.219Z,68.94
2022-08-07T21:46:10.024Z,68.81
2022-08-07T21:48:55.826Z,68.55
2022-08-07T21:51:32.890Z,68.94
2022-08-07T21:55:06.756Z,68.15
2022-08-07T21:58:04.542Z,68.38
2022-08-07T22:00:32.742Z,68.66
2022-08-07T22:03:17.271Z,68.06
2022-08-07T22:06:03.797Z,67.71
2022-08-07T22:08:40.908Z,67.81
2022-08-07T22:11:11.156Z,67.68
2022-08-07T22:13:52.039Z,67.23
2022-08-07T22:16:38.451Z,67.40
2022-08-07T22:19:29.540Z,67.33
2022-08-07T22:22:28.963Z,67.78
2022-08-07T22:25:05.672Z,68.20
2022-08-07T22:28:07.858Z,68.80
2022-08-07T22:30:54.720Z,68.52
2022-08-07T22:33:52.817Z,68.42
2022-08-07T22:36:35.956Z,68.24
2022-08-07T22:39:30.000Z,68.76
2022-08-07T22:42:25.674Z,68.81
2022-08-07T22:44:58.601Z,68.92
2022-08-07T22:48:04.299Z,69.43
2022-08-07T22:51:08.676Z,70.20
2022-08-07T22:54:06.951Z,70.99
2022-08-07T22:56:54.756Z,71.34
2022-08-07T22:59:33.904Z,70.59
2022-08-07T23:02:22.694Z,70.58
2022-08-07T23:06:08.455Z,70.90
2022-08-07T23:08:22.314Z,70.93
2022-08-07T23:11:49.370Z,70.51
2022-08-07T23:14:48.457Z,70.75
2022-08-07T23:17:26.005Z,70.59
2022-08-07T23:20:51.224Z,70.88
2022-08-07T23:24:06.887Z,70.94
2022-08-07T23:27:01.253Z,70.57
2022-08-07T23:29:43.597Z,70.11
2022-08-07T23:34:18.617Z,70.04
2022-08-07T23:35:37.546Z,70.48
2022-08-07T23:38:10.834Z,71.05
2022-08-07T23:40:53.484Z,71.46
2022-08-07T23:43:39.221Z,70.91
2022-08-07T23:46:42.970Z,71.18
2022-08-07T23:49:50.854Z,71.27
2022-08-07T23:53:00.214Z,71.32
2022-08-07T23:55:52.413Z,71.50
2022-08-07T23:58:27.076Z,71.99
